Time;durP1;ratioP1;P1;durP2;ratioP2;P2;SDS_P1;SDS_P2;PMS_P1;PMS_P2;Temp;Humidity;BMP_temperature;BMP_pressure;BME280_temperature;BME280_humidity;BME280_pressure;Samples;Min_cycle;Max_cycle;Signal;HPM_P1;HPM_P2
2021/06/04 00:00:44;;;;;;;0.40;0.40;;;20.50;73.00;;;;;;4413411;32;20099;-62
2021/06/04 00:03:14;;;;;;;0.30;0.30;;;20.40;72.50;;;;;;4386913;32;20533;-61
2021/06/04 00:05:44;;;;;;;4.10;1.70;;;20.40;73.00;;;;;;4400294;32;20073;-62
2021/06/04 00:08:11;;;;;;;0.40;0.40;;;20.30;73.10;;;;;;4399319;32;20073;-62
2021/06/04 00:10:41;;;;;;;0.30;0.30;;;20.40;73.00;;;;;;4421924;32;20058;-61
2021/06/04 00:13:28;;;;;;;1.75;0.90;;;20.40;73.20;;;;;;4406960;32;20125;-62
2021/06/04 00:16:00;;;;;;;0.50;0.50;;;20.30;73.20;;;;;;4401155;32;20397;-62
2021/06/04 00:18:26;;;;;;;0.40;0.40;;;20.30;73.60;;;;;;4387300;32;20291;-62
2021/06/04 00:20:51;;;;;;;2.10;1.02;;;20.30;73.60;;;;;;4386573;32;20073;-61
2021/06/04 00:23:17;;;;;;;0.43;0.43;;;20.30;73.30;;;;;;4414279;32;20586;-62
2021/06/04 00:25:43;;;;;;;0.55;0.55;;;20.30;73.50;;;;;;4399239;32;20089;-62
2021/06/04 00:28:08;;;;;;;0.45;0.45;;;20.30;73.30;;;;;;4399794;32;20372;-62
2021/06/04 00:30:34;;;;;;;0.70;0.70;;;20.30;73.50;;;;;;4412678;32;20086;-62
2021/06/04 00:33:00;;;;;;;0.50;0.50;;;20.10;74.40;;;;;;4386576;32;20519;-62
2021/06/04 00:35:26;;;;;;;0.98;0.55;;;20.10;73.80;;;;;;4414587;32;20086;-62
2021/06/04 00:37:52;;;;;;;0.30;0.30;;;20.10;73.80;;;;;;4413645;32;20086;-62
2021/06/04 00:40:23;;;;;;;0.50;0.50;;;20.00;74.20;;;;;;4413087;32;20073;-62
2021/06/04 00:42:49;;;;;;;0.40;0.40;;;20.00;74.40;;;;;;4412634;32;20449;-62
2021/06/04 00:45:19;;;;;;;0.52;0.52;;;20.00;74.90;;;;;;4398798;32;20066;-62
2021/06/04 00:47:45;;;;;;;0.40;0.40;;;20.00;74.70;;;;;;4387606;32;20130;-62
2021/06/04 00:50:15;;;;;;;0.65;0.60;;;20.00;74.40;;;;;;4413249;32;20517;-62
2021/06/04 00:52:42;;;;;;;1.70;0.97;;;20.10;74.10;;;;;;4399483;32;20066;-62
2021/06/04 00:55:13;;;;;;;0.50;0.50;;;20.00;74.20;;;;;;4399039;32;20487;-62
2021/06/04 00:57:39;;;;;;;0.80;0.80;;;20.00;74.70;;;;;;4400296;32;20587;-62
2021/06/04 01:00:10;;;;;;;0.43;0.43;;;19.90;75.10;;;;;;4398780;32;20066;-62
2021/06/04 01:02:36;;;;;;;0.30;0.30;;;19.90;74.80;;;;;;4386044;32;20086;-62
2021/06/04 01:05:02;;;;;;;0.88;0.55;;;19.90;75.30;;;;;;4412987;32;20065;-62
2021/06/04 01:07:44;;;;;;;0.57;0.52;;;19.90;75.60;;;;;;4399828;32;20491;-62
2021/06/04 01:10:14;;;;;;;0.32;0.32;;;19.80;75.40;;;;;;4412382;32;20065;-62
2021/06/04 01:12:48;;;;;;;0.52;0.43;;;19.80;75.60;;;;;;4418365;32;20074;-61
2021/06/04 01:15:31;;;;;;;0.50;0.50;;;19.80;75.70;;;;;;4413053;32;20069;-62
2021/06/04 01:18:12;;;;;;;0.55;0.55;;;19.70;76.00;;;;;;4427727;32;20062;-61
2021/06/04 01:20:40;;;;;;;0.77;0.30;;;19.70;76.20;;;;;;4415619;32;20089;-61
2021/06/04 01:23:26;;;;;;;2.15;0.65;;;19.70;76.60;;;;;;4430712;32;20086;-61
2021/06/04 01:25:57;;;;;;;0.65;0.57;;;19.80;75.40;;;;;;4429663;32;20279;-62
2021/06/04 01:28:30;;;;;;;0.35;0.35;;;19.70;76.20;;;;;;4417563;32;20139;-62
2021/06/04 01:31:18;;;;;;;0.37;0.37;;;19.60;76.60;;;;;;4404216;32;20073;-62
2021/06/04 01:33:49;;;;;;;0.30;0.30;;;19.60;76.50;;;;;;4418972;32;20422;-61
2021/06/04 01:36:23;;;;;;;0.40;0.40;;;19.60;76.90;;;;;;4405741;32;20128;-62
2021/06/04 01:38:52;;;;;;;0.47;0.47;;;19.50;77.50;;;;;;4405159;32;20089;-62
2021/06/04 01:41:23;;;;;;;0.30;0.30;;;19.50;77.90;;;;;;4403706;32;20062;-62
2021/06/04 01:43:55;;;;;;;0.37;0.35;;;19.40;77.70;;;;;;4416883;32;20057;-62
2021/06/04 01:46:26;;;;;;;0.50;0.50;;;19.50;77.20;;;;;;4415617;32;20060;-62
2021/06/04 01:48:53;;;;;;;18.12;1.42;;;19.40;77.90;;;;;;4416994;32;20057;-62
2021/06/04 01:51:22;;;;;;;0.60;0.50;;;19.40;78.00;;;;;;4430191;32;20082;-61
2021/06/04 01:53:54;;;;;;;0.43;0.43;;;19.40;78.00;;;;;;4418089;32;20451;-62
2021/06/04 01:56:25;;;;;;;2.72;1.20;;;19.40;77.60;;;;;;4431261;32;20128;-61
2021/06/04 01:58:57;;;;;;;9.90;1.20;;;19.30;78.00;;;;;;4434258;32;20133;-61
2021/06/04 02:01:31;;;;;;;1.23;0.85;;;19.40;78.40;;;;;;4416548;32;20530;-61
2021/06/04 02:03:58;;;;;;;0.55;0.55;;;19.40;78.00;;;;;;4430228;32;20061;-61
2021/06/04 02:06:24;;;;;;;1.55;0.52;;;19.30;78.20;;;;;;4431430;32;20065;-61
2021/06/04 02:08:54;;;;;;;0.30;0.30;;;19.40;78.20;;;;;;4417318;32;20065;-61
2021/06/04 02:11:24;;;;;;;0.35;0.35;;;19.40;77.60;;;;;;4416859;32;20210;-60
2021/06/04 02:13:50;;;;;;;0.20;0.20;;;19.30;77.50;;;;;;4404628;32;20551;-61
2021/06/04 02:16:38;;;;;;;0.62;0.60;;;19.30;77.80;;;;;;4402765;32;20124;-61
2021/06/04 02:19:30;;;;;;;0.80;0.80;;;19.30;77.70;;;;;;4404178;32;20078;-61
2021/06/04 02:22:04;;;;;;;0.52;0.52;;;19.30;77.60;;;;;;4393332;32;20070;-61
2021/06/04 02:24:39;;;;;;;0.30;0.30;;;19.30;78.00;;;;;;4390714;32;20555;-61
2021/06/04 02:27:12;;;;;;;19.30;1.30;;;19.40;78.00;;;;;;4402430;32;20065;-61
2021/06/04 02:29:52;;;;;;;0.30;0.30;;;19.40;77.80;;;;;;4401732;32;20066;-61
2021/06/04 02:32:32;;;;;;;2.70;0.68;;;19.40;77.20;;;;;;4414909;32;20528;-61
2021/06/04 02:35:07;;;;;;;0.62;0.62;;;19.40;76.90;;;;;;4415418;32;20061;-61
2021/06/04 02:37:39;;;;;;;0.70;0.70;;;19.40;77.30;;;;;;4389738;32;20069;-62
2021/06/04 02:40:11;;;;;;;0.28;0.28;;;19.40;77.20;;;;;;4402041;32;20422;-62
2021/06/04 02:42:43;;;;;;;1.77;1.00;;;19.40;77.00;;;;;;4401839;32;20086;-62
2021/06/04 02:45:20;;;;;;;0.85;0.40;;;19.40;77.10;;;;;;4400310;32;20121;-62
2021/06/04 02:47:51;;;;;;;0.25;0.25;;;19.40;77.70;;;;;;4401808;32;20129;-62
2021/06/04 02:50:37;;;;;;;0.50;0.50;;;19.30;78.50;;;;;;4387729;32;20491;-61
2021/06/04 02:53:25;;;;;;;1.37;0.62;;;19.30;77.20;;;;;;4402094;32;20077;-61
2021/06/04 02:56:06;;;;;;;0.50;0.50;;;19.30;77.10;;;;;;4402316;32;20085;-61
2021/06/04 02:58:32;;;;;;;0.28;0.28;;;19.30;77.00;;;;;;4415325;32;20125;-62
2021/06/04 03:00:58;;;;;;;0.37;0.37;;;19.40;77.30;;;;;;4413915;32;20069;-61
2021/06/04 03:03:24;;;;;;;0.30;0.30;;;19.30;76.70;;;;;;4387672;32;20065;-62
2021/06/04 03:05:49;;;;;;;9.65;0.65;;;19.30;76.80;;;;;;4415258;32;20077;-62
2021/06/04 03:08:15;;;;;;;0.77;0.65;;;19.20;77.00;;;;;;4400869;32;20370;-62
2021/06/04 03:10:45;;;;;;;0.50;0.50;;;19.30;76.90;;;;;;4422430;32;20563;-62
2021/06/04 03:13:16;;;;;;;1.12;0.70;;;19.40;76.70;;;;;;4395857;32;20086;-61
2021/06/04 03:15:47;;;;;;;0.47;0.47;;;19.30;76.90;;;;;;4387316;32;20061;-62
2021/06/04 03:18:14;;;;;;;;;;;19.20;77.10;;;;;;4400851;32;20077;-62
2021/06/04 03:20:44;;;;;;;0.52;0.52;;;19.20;77.50;;;;;;4400669;32;20280;-62
2021/06/04 03:23:13;;;;;;;0.30;0.30;;;19.30;76.90;;;;;;4389793;32;20073;-62
2021/06/04 03:25:43;;;;;;;2.55;0.40;;;19.30;77.30;;;;;;4388198;32;20477;-62
2021/06/04 03:28:12;;;;;;;0.30;0.30;;;19.30;76.90;;;;;;4388723;32;20566;-62
2021/06/04 03:30:40;;;;;;;0.40;0.40;;;19.40;76.50;;;;;;4401208;32;20082;-61
2021/06/04 03:33:08;;;;;;;0.70;0.68;;;19.50;76.30;;;;;;4388083;32;20516;-59
2021/06/04 03:35:34;;;;;;;0.37;0.37;;;19.50;76.60;;;;;;4401296;32;20085;-61
2021/06/04 03:38:00;;;;;;;0.45;0.45;;;19.40;76.90;;;;;;4413888;32;20073;-61
2021/06/04 03:40:29;;;;;;;1.45;0.65;;;19.30;76.80;;;;;;4413983;32;20404;-61
2021/06/04 03:42:57;;;;;;;6.03;1.85;;;19.40;77.10;;;;;;4400476;32;20078;-61
2021/06/04 03:45:27;;;;;;;0.30;0.30;;;19.30;77.40;;;;;;4400381;32;20081;-61
2021/06/04 03:47:53;;;;;;;0.47;0.47;;;19.20;78.30;;;;;;4388499;32;20479;-61
2021/06/04 03:50:19;;;;;;;0.52;0.50;;;19.30;78.30;;;;;;4401728;32;20078;-61
2021/06/04 03:52:45;;;;;;;0.47;0.47;;;19.30;77.60;;;;;;4400627;32;20082;-61
2021/06/04 03:55:14;;;;;;;0.32;0.32;;;19.20;77.80;;;;;;4401228;32;20074;-61
2021/06/04 03:57:40;;;;;;;0.55;0.55;;;19.10;78.70;;;;;;4387752;32;20069;-62
2021/06/04 04:00:12;;;;;;;0.95;0.75;;;19.20;78.10;;;;;;4399439;32;20069;-62
2021/06/04 04:02:38;;;;;;;1.85;0.85;;;19.10;79.00;;;;;;4388384;32;20070;-61
2021/06/04 04:05:05;;;;;;;0.68;0.60;;;19.00;80.00;;;;;;4400718;32;20524;-62
2021/06/04 04:07:31;;;;;;;0.52;0.52;;;19.00;80.50;;;;;;4387879;32;20081;-61
2021/06/04 04:09:57;;;;;;;6.03;0.70;;;18.90;80.60;;;;;;4417270;32;20557;-61
2021/06/04 04:12:24;;;;;;;0.57;0.50;;;18.90;81.00;;;;;;4412088;32;20789;-62
2021/06/04 04:14:50;;;;;;;1.55;1.05;;;18.80;83.30;;;;;;4412199;32;20132;-62
2021/06/04 04:17:15;;;;;;;0.25;0.25;;;18.70;84.10;;;;;;4413459;32;20093;-62
2021/06/04 04:19:41;;;;;;;1.10;0.57;;;18.70;84.00;;;;;;4413436;32;20061;-59
2021/06/04 04:22:07;;;;;;;0.32;0.32;;;18.60;83.60;;;;;;4411808;32;20074;-60
2021/06/04 04:24:36;;;;;;;3.03;1.20;;;18.70;83.70;;;;;;4427056;32;20468;-61
2021/06/04 04:27:03;;;;;;;0.43;0.43;;;18.70;83.70;;;;;;4413568;32;20538;-61
2021/06/04 04:29:29;;;;;;;0.95;0.70;;;18.60;84.80;;;;;;4397659;32;20086;-61
2021/06/04 04:31:58;;;;;;;8.48;0.73;;;18.60;84.20;;;;;;4414002;32;20081;-62
2021/06/04 04:34:24;;;;;;;0.30;0.30;;;18.50;85.00;;;;;;4398568;32;20487;-61
2021/06/04 04:36:54;;;;;;;0.30;0.30;;;18.50;85.10;;;;;;4399986;32;20429;-62
2021/06/04 04:39:24;;;;;;;1.12;0.62;;;18.50;84.80;;;;;;4400572;32;20085;-62
2021/06/04 04:41:50;;;;;;;3.70;0.57;;;18.60;84.80;;;;;;4412803;32;20082;-62
2021/06/04 04:44:19;;;;;;;1.23;0.60;;;18.50;84.50;;;;;;4411816;32;20140;-62
2021/06/04 04:46:45;;;;;;;0.70;0.70;;;18.50;84.90;;;;;;4399068;32;20087;-62
2021/06/04 04:49:11;;;;;;;2.30;1.08;;;18.50;84.40;;;;;;4399023;32;20460;-61
2021/06/04 04:51:39;;;;;;;1.05;0.75;;;18.50;84.30;;;;;;4411407;32;20128;-62
2021/06/04 04:54:05;;;;;;;2.60;1.17;;;18.50;85.80;;;;;;4416623;32;20122;-62
2021/06/04 04:56:31;;;;;;;1.65;0.55;;;18.50;86.00;;;;;;4401358;32;20090;-62
2021/06/04 04:58:57;;;;;;;1.65;0.68;;;18.60;85.20;;;;;;4411600;32;20061;-61
2021/06/04 05:01:22;;;;;;;0.50;0.50;;;18.60;85.90;;;;;;4416308;32;20086;-63
2021/06/04 05:03:48;;;;;;;0.65;0.43;;;18.60;85.70;;;;;;4418945;32;20086;-61
2021/06/04 05:06:14;;;;;;;1.45;0.68;;;18.60;85.70;;;;;;4416216;32;20417;-60
2021/06/04 05:08:40;;;;;;;0.50;0.50;;;18.70;86.10;;;;;;4423115;32;20486;-60
2021/06/04 05:11:07;;;;;;;2.03;0.65;;;18.50;86.50;;;;;;4413821;32;20523;-61
2021/06/04 05:13:34;;;;;;;0.50;0.50;;;18.50;86.40;;;;;;4410912;32;20421;-61
2021/06/04 05:16:03;;;;;;;0.62;0.62;;;18.40;88.00;;;;;;4391166;32;20153;-61
2021/06/04 05:18:29;;;;;;;1.87;1.23;;;18.40;88.20;;;;;;4393564;32;20073;-60
2021/06/04 05:20:55;;;;;;;2.30;1.05;;;18.30;91.10;;;;;;4393081;32;20077;-61
2021/06/04 05:23:21;;;;;;;0.40;0.40;;;18.20;91.50;;;;;;4404182;32;20132;-62
2021/06/04 05:25:49;;;;;;;0.37;0.37;;;18.00;93.20;;;;;;4404198;32;20463;-61
2021/06/04 05:28:19;;;;;;;4.20;1.27;;;17.90;94.90;;;;;;4411005;32;20077;-62
2021/06/04 05:30:47;;;;;;;0.50;0.50;;;17.80;96.40;;;;;;4386077;32;20094;-62
2021/06/04 05:33:17;;;;;;;0.55;0.55;;;17.70;99.30;;;;;;4393805;32;20176;-62
2021/06/04 05:35:43;;;;;;;0.40;0.40;;;17.60;99.90;;;;;;4408428;32;20102;-61
2021/06/04 05:38:10;;;;;;;1.90;1.25;;;17.50;99.90;;;;;;4401919;32;20069;-60
2021/06/04 05:40:40;;;;;;;0.52;0.52;;;17.40;99.90;;;;;;4400281;32;20053;-61
2021/06/04 05:43:07;;;;;;;1.67;0.82;;;17.30;99.90;;;;;;4399678;32;20155;-61
2021/06/04 05:45:35;;;;;;;26.42;1.30;;;17.30;99.90;;;;;;4389131;32;20065;-61
2021/06/04 05:48:01;;;;;;;0.82;0.82;;;17.30;99.90;;;;;;4404403;32;20050;-61
2021/06/04 05:50:32;;;;;;;0.73;0.70;;;17.30;99.90;;;;;;4414735;32;20166;-61
2021/06/04 05:52:57;;;;;;;;;;;17.30;99.90;;;;;;4387251;32;20070;-60
2021/06/04 05:55:26;;;;;;;1.52;0.65;;;17.30;99.90;;;;;;4410043;32;19960;-60
2021/06/04 05:57:52;;;;;;;2.53;1.00;;;17.30;99.90;;;;;;4410529;32;20081;-59
2021/06/04 06:00:26;;;;;;;1.35;0.90;;;17.30;99.90;;;;;;4397881;32;20102;-61
2021/06/04 06:02:54;;;;;;;1.75;0.62;;;17.40;99.90;;;;;;4401750;32;20136;-61
2021/06/04 06:05:20;;;;;;;1.00;0.60;;;17.40;99.90;;;;;;4386532;32;20534;-61
2021/06/04 06:07:45;;;;;;;0.55;0.55;;;17.40;99.90;;;;;;4414818;32;20085;-61
2021/06/04 06:10:12;;;;;;;0.68;0.68;;;17.40;99.90;;;;;;4416484;32;20659;-61
2021/06/04 06:12:38;;;;;;;0.50;0.50;;;17.30;99.90;;;;;;4418143;32;20347;-61
2021/06/04 06:15:05;;;;;;;3.58;1.33;;;17.30;99.90;;;;;;4387035;32;20448;-61
2021/06/04 06:17:31;;;;;;;2.03;1.15;;;17.30;99.90;;;;;;4388882;32;20073;-61
2021/06/04 06:19:57;;;;;;;0.98;0.60;;;17.30;99.90;;;;;;4416753;32;20161;-61
2021/06/04 06:22:22;;;;;;;1.23;0.73;;;17.30;99.90;;;;;;4403052;32;20092;-60
2021/06/04 06:24:48;;;;;;;1.87;1.05;;;17.40;99.90;;;;;;4415773;32;20653;-60
2021/06/04 06:27:13;;;;;;;0.43;0.35;;;17.50;99.90;;;;;;4412294;32;20385;-59
2021/06/04 06:29:39;;;;;;;0.40;0.40;;;17.50;99.90;;;;;;4414422;32;20074;-61
2021/06/04 06:32:07;;;;;;;0.70;0.70;;;17.50;99.90;;;;;;4399824;32;20361;-61
2021/06/04 06:34:33;;;;;;;0.47;0.47;;;17.80;99.90;;;;;;4401486;32;20108;-62
2021/06/04 06:37:00;;;;;;;4.62;0.60;;;17.90;99.90;;;;;;4388839;32;20089;-62
2021/06/04 06:39:29;;;;;;;0.75;0.37;;;18.00;99.90;;;;;;4399143;32;20066;-61
2021/06/04 06:41:56;;;;;;;1.87;1.10;;;18.00;99.90;;;;;;4399989;32;20706;-62
2021/06/04 06:44:22;;;;;;;0.45;0.45;;;18.10;99.90;;;;;;4412913;32;20077;-60
2021/06/04 06:46:48;;;;;;;0.93;0.80;;;18.20;99.90;;;;;;4400071;32;20086;-60
2021/06/04 06:49:14;;;;;;;0.60;0.60;;;18.20;99.90;;;;;;4389270;32;20143;-60
2021/06/04 06:51:40;;;;;;;1.02;0.95;;;18.20;99.90;;;;;;4399902;32;20740;-60
2021/06/04 06:54:09;;;;;;;0.45;0.45;;;18.10;99.90;;;;;;4416839;32;20077;-61
2021/06/04 06:56:36;;;;;;;0.70;0.70;;;18.20;99.90;;;;;;4386336;32;20116;-61
2021/06/04 06:59:02;;;;;;;0.50;0.50;;;18.20;99.90;;;;;;4386076;32;20149;-61
2021/06/04 07:01:28;;;;;;;3.03;1.17;;;18.20;99.90;;;;;;4414542;32;20066;-61
2021/06/04 07:03:53;;;;;;;0.90;0.82;;;18.10;99.90;;;;;;4414167;32;20687;-61
2021/06/04 07:06:26;;;;;;;0.50;0.50;;;18.10;99.90;;;;;;4411801;32;20085;-61
2021/06/04 07:08:52;;;;;;;0.85;0.73;;;18.20;99.90;;;;;;4397001;32;20585;-62
2021/06/04 07:11:19;;;;;;;0.75;0.70;;;18.30;99.90;;;;;;4412730;32;20194;-61
2021/06/04 07:13:45;;;;;;;1.58;0.93;;;18.40;99.90;;;;;;4393642;32;20660;-61
2021/06/04 07:16:12;;;;;;;3.75;1.05;;;18.40;99.90;;;;;;4397017;32;20137;-62
2021/06/04 07:18:39;;;;;;;1.87;0.73;;;18.40;99.90;;;;;;4396514;32;20094;-61
2021/06/04 07:21:08;;;;;;;0.47;0.47;;;18.30;99.90;;;;;;4391288;32;20086;-61
2021/06/04 07:23:33;;;;;;;0.88;0.65;;;18.40;99.90;;;;;;4384949;32;20102;-60
2021/06/04 07:25:59;;;;;;;1.12;0.90;;;18.30;99.90;;;;;;4409657;32;20445;-61
2021/06/04 07:28:28;;;;;;;0.43;0.43;;;18.40;99.90;;;;;;4406404;32;20190;-61
2021/06/04 07:30:56;;;;;;;0.60;0.60;;;18.40;99.90;;;;;;4397974;32;20128;-61
2021/06/04 07:33:28;;;;;;;2.45;1.23;;;18.50;99.90;;;;;;4385871;32;20073;-62
2021/06/04 07:35:56;;;;;;;6.82;1.05;;;18.60;99.90;;;;;;4405602;32;20078;-61
2021/06/04 07:38:22;;;;;;;0.98;0.75;;;18.60;99.90;;;;;;4401898;32;20084;-61
2021/06/04 07:40:49;;;;;;;1.17;0.82;;;18.60;99.90;;;;;;4392827;32;20147;-62
2021/06/04 07:43:18;;;;;;;0.62;0.62;;;18.70;99.90;;;;;;4400208;32;20078;-61
2021/06/04 07:45:45;;;;;;;0.65;0.55;;;18.70;99.90;;;;;;4389025;32;20081;-62
2021/06/04 07:48:13;;;;;;;0.40;0.40;;;18.70;99.90;;;;;;4404694;32;20123;-62
2021/06/04 07:50:42;;;;;;;3.33;1.23;;;18.80;99.90;;;;;;4416504;32;20081;-61
2021/06/04 07:53:10;;;;;;;0.30;0.30;;;18.90;99.90;;;;;;4400944;32;20073;-62
2021/06/04 07:55:36;;;;;;;1.65;0.65;;;18.80;99.90;;;;;;4416147;32;20194;-61
2021/06/04 07:58:02;;;;;;;1.60;0.98;;;18.70;99.90;;;;;;4415236;32;20144;-60
2021/06/04 08:00:29;;;;;;;3.03;1.05;;;18.80;99.90;;;;;;4388452;32;20133;-60
2021/06/04 08:02:58;;;;;;;1.95;0.80;;;18.90;99.90;;;;;;4396942;32;20082;-60
2021/06/04 08:05:24;;;;;;;2.70;0.85;;;19.00;99.90;;;;;;4397618;32;20085;-60
2021/06/04 08:07:50;;;;;;;0.62;0.62;;;19.00;99.90;;;;;;4411799;32;20175;-60
2021/06/04 08:10:17;;;;;;;0.95;0.60;;;19.00;99.90;;;;;;4414930;32;20165;-60
2021/06/04 08:12:44;;;;;;;0.50;0.50;;;19.10;99.90;;;;;;4386485;32;20086;-59
2021/06/04 08:15:15;;;;;;;1.83;1.25;;;19.10;99.90;;;;;;4389647;32;20065;-60
2021/06/04 08:17:42;;;;;;;0.65;0.62;;;19.10;99.90;;;;;;4390024;32;20395;-61
2021/06/04 08:20:11;;;;;;;2.40;1.17;;;19.10;99.90;;;;;;4419510;32;20081;-59
2021/06/04 08:22:41;;;;;;;0.47;0.47;;;19.10;99.90;;;;;;4392217;32;20131;-59
2021/06/04 08:25:08;;;;;;;0.60;0.60;;;19.30;99.90;;;;;;4389752;32;20577;-60
2021/06/04 08:27:34;;;;;;;0.50;0.50;;;19.30;99.90;;;;;;4407701;32;20077;-61
2021/06/04 08:29:59;;;;;;;1.12;0.90;;;19.30;99.90;;;;;;4401283;32;20066;-60
2021/06/04 08:32:25;;;;;;;2.17;0.85;;;19.40;99.90;;;;;;4421209;32;20061;-60
2021/06/04 08:34:50;;;;;;;0.43;0.43;;;19.40;99.90;;;;;;4416297;32;20078;-60
2021/06/04 08:37:16;;;;;;;0.47;0.47;;;19.50;99.90;;;;;;4414152;32;20523;-61
2021/06/04 08:39:43;;;;;;;3.12;1.05;;;19.50;99.90;;;;;;4414160;32;20069;-60
2021/06/04 08:42:30;;;;;;;0.95;0.95;;;19.40;99.90;;;;;;4397301;32;20507;-59
2021/06/04 08:45:36;;;;;;;0.43;0.43;;;19.50;99.90;;;;;;4396002;32;20058;-60
2021/06/04 08:48:42;;;;;;;0.50;0.50;;;19.60;99.90;;;;;;4403207;32;20106;-61
2021/06/04 08:51:36;;;;;;;1.17;0.82;;;19.60;99.90;;;;;;4400273;32;20511;-60
2021/06/04 08:54:31;;;;;;;1.10;0.43;;;19.60;99.90;;;;;;4410447;32;20544;-60
2021/06/04 08:57:10;;;;;;;0.82;0.82;;;19.60;99.90;;;;;;4390254;32;20089;-57
2021/06/04 08:59:38;;;;;;;1.45;0.40;;;19.40;99.90;;;;;;4415463;32;20153;-60
2021/06/04 09:02:10;;;;;;;0.60;0.60;;;19.40;99.90;;;;;;4406101;32;20104;-61
2021/06/04 09:04:43;;;;;;;0.77;0.68;;;19.50;99.90;;;;;;4420271;32;20074;-60
2021/06/04 09:07:14;;;;;;;1.95;1.05;;;19.70;99.90;;;;;;4414583;32;20114;-60
2021/06/04 09:09:45;;;;;;;3.00;1.77;;;19.80;99.90;;;;;;4417552;32;20084;-60
2021/06/04 09:12:23;;;;;;;1.75;1.15;;;19.90;99.90;;;;;;4403118;32;20069;-61
2021/06/04 09:14:52;;;;;;;1.62;0.73;;;19.90;99.90;;;;;;4415692;32;20222;-59
2021/06/04 09:17:54;;;;;;;16.55;0.95;;;20.00;99.90;;;;;;4388308;32;20487;-61
2021/06/04 09:20:34;;;;;;;0.50;0.50;;;20.00;99.90;;;;;;4401534;32;20093;-60
2021/06/04 09:23:04;;;;;;;0.45;0.45;;;20.00;99.90;;;;;;4409592;32;20772;-60
2021/06/04 09:25:31;;;;;;;0.65;0.65;;;19.80;99.90;;;;;;4389255;32;20769;-59
2021/06/04 09:28:19;;;;;;;0.73;0.73;;;19.70;99.90;;;;;;4388590;32;20196;-60
2021/06/04 09:30:49;;;;;;;0.68;0.68;;;19.70;99.90;;;;;;4414324;32;20126;-60
2021/06/04 09:33:22;;;;;;;3.40;0.65;;;19.50;99.90;;;;;;4400256;32;20108;-61
2021/06/04 09:36:10;;;;;;;0.50;0.50;;;19.60;99.90;;;;;;4416524;32;20108;-61
2021/06/04 09:38:42;;;;;;;0.40;0.40;;;19.60;99.90;;;;;;4388205;32;20134;-60
2021/06/04 09:41:17;;;;;;;0.50;0.43;;;19.50;99.90;;;;;;4412613;32;75381;-61
2021/06/04 09:43:46;;;;;;;1.75;0.57;;;19.60;99.90;;;;;;4415204;32;20077;-62
2021/06/04 09:46:13;;;;;;;1.05;0.95;;;19.60;99.90;;;;;;4394158;32;20148;-61
2021/06/04 09:48:53;;;;;;;0.47;0.47;;;19.70;99.90;;;;;;4416529;32;20081;-60
2021/06/04 09:51:32;;;;;;;0.65;0.50;;;19.70;99.90;;;;;;4415796;32;20065;-61
2021/06/04 09:54:23;;;;;;;0.70;0.65;;;19.90;99.90;;;;;;4408373;32;20078;-61
2021/06/04 09:56:49;;;;;;;0.75;0.52;;;19.80;99.90;;;;;;4418060;32;20169;-61
2021/06/04 09:59:21;;;;;;;0.50;0.50;;;19.80;99.90;;;;;;4397976;32;20132;-62
2021/06/04 10:01:50;;;;;;;5.93;0.80;;;19.80;99.90;;;;;;4404010;32;20168;-62
2021/06/04 10:04:30;;;;;;;0.70;0.60;;;19.90;99.90;;;;;;4419900;32;20074;-61
2021/06/04 10:07:01;;;;;;;0.85;0.55;;;19.90;99.90;;;;;;4402027;32;20223;-61
2021/06/04 10:09:38;;;;;;;1.02;0.90;;;20.00;99.90;;;;;;4414469;32;20066;-61
2021/06/04 10:12:16;;;;;;;3.53;1.80;;;20.00;99.90;;;;;;4406397;32;20082;-61
2021/06/04 10:14:49;;;;;;;2.03;0.82;;;20.00;99.90;;;;;;4417542;32;20064;-60
2021/06/04 10:19:58;;;;;;;1.20;0.65;;;20.10;99.90;;;;;;4400626;32;20054;-61
2021/06/04 10:22:44;;;;;;;0.40;0.40;;;20.30;99.90;;;;;;4413962;32;20160;-61
2021/06/04 10:25:11;;;;;;;0.62;0.52;;;20.40;99.90;;;;;;4421190;32;20053;-61
2021/06/04 10:27:46;;;;;;;0.65;0.65;;;20.40;99.90;;;;;;4419495;32;20417;-60
2021/06/04 10:30:17;;;;;;;0.25;0.25;;;20.50;99.90;;;;;;4407426;32;20070;-61
2021/06/04 10:33:07;;;;;;;1.80;0.82;;;20.60;99.90;;;;;;4420099;32;20587;-61
2021/06/04 10:35:38;;;;;;;0.45;0.45;;;20.70;99.90;;;;;;4407245;32;20094;-61
2021/06/04 10:38:27;;;;;;;0.73;0.62;;;20.70;99.90;;;;;;4400763;32;20137;-61
2021/06/04 10:40:57;;;;;;;0.62;0.62;;;20.60;99.90;;;;;;4405394;32;20170;-60
2021/06/04 10:43:34;;;;;;;0.50;0.50;;;20.70;99.90;;;;;;4416103;32;20168;-62
2021/06/04 10:46:08;;;;;;;0.35;0.35;;;20.90;99.90;;;;;;4415229;32;20097;-60
2021/06/04 10:48:50;;;;;;;0.57;0.57;;;21.00;99.90;;;;;;4418377;32;20559;-61
2021/06/04 10:51:56;;;;;;;1.80;0.57;;;21.10;99.90;;;;;;4419022;32;20392;-61
2021/06/04 10:54:29;;;;;;;0.62;0.50;;;21.40;99.90;;;;;;4394808;32;20105;-62
2021/06/04 10:57:03;;;;;;;0.70;0.70;;;21.90;99.90;;;;;;4398489;32;20408;-61
2021/06/04 10:59:38;;;;;;;0.43;0.43;;;22.00;99.90;;;;;;4404111;32;20529;-61
2021/06/04 11:02:28;;;;;;;1.20;0.77;;;22.10;99.90;;;;;;4403184;32;20054;-60
2021/06/04 11:05:15;;;;;;;0.50;0.45;;;22.10;99.90;;;;;;4407766;32;20109;-61
2021/06/04 11:07:55;;;;;;;0.55;0.50;;;22.40;99.90;;;;;;4396367;32;20127;-61
2021/06/04 11:10:24;;;;;;;0.37;0.35;;;22.30;99.90;;;;;;4420304;32;20120;-63
2021/06/04 11:13:29;;;;;;;0.80;0.80;;;22.50;99.90;;;;;;4399422;32;20069;-62
2021/06/04 11:16:26;;;;;;;0.95;0.50;;;22.90;99.90;;;;;;4394206;32;20054;-61
2021/06/04 11:19:08;;;;;;;0.75;0.68;;;23.20;99.90;;;;;;4403697;32;20103;-61
2021/06/04 11:21:38;;;;;;;1.65;0.85;;;23.00;99.90;;;;;;4417462;32;20213;-61
2021/06/04 11:24:10;;;;;;;0.65;0.65;;;23.00;99.90;;;;;;4403971;32;20069;-62
2021/06/04 11:26:53;;;;;;;0.60;0.60;;;23.00;99.90;;;;;;4417072;32;20066;-62
2021/06/04 11:29:22;;;;;;;0.50;0.50;;;23.30;99.90;;;;;;4416935;32;20601;-62
2021/06/04 11:32:01;;;;;;;1.05;0.95;;;23.30;99.90;;;;;;4398653;32;20106;-62
2021/06/04 11:34:37;;;;;;;0.40;0.40;;;23.10;99.90;;;;;;4398799;32;20231;-61
2021/06/04 11:37:06;;;;;;;0.75;0.68;;;23.30;99.90;;;;;;4416477;32;20461;-62
2021/06/04 11:39:36;;;;;;;0.47;0.47;;;23.40;99.40;;;;;;4386636;32;20487;-62
2021/06/04 11:42:10;;;;;;;0.40;0.40;;;23.50;99.80;;;;;;4415485;32;20612;-62
2021/06/04 11:44:42;;;;;;;0.40;0.40;;;23.60;99.40;;;;;;4399842;32;20106;-61
2021/06/04 11:47:25;;;;;;;0.60;0.60;;;23.60;99.50;;;;;;4402400;32;20097;-63
2021/06/04 11:49:56;;;;;;;0.47;0.47;;;23.70;99.80;;;;;;4402926;32;20186;-61
2021/06/04 11:52:43;;;;;;;0.40;0.40;;;23.90;99.20;;;;;;4416940;32;20085;-61
2021/06/04 11:55:27;;;;;;;1.05;0.75;;;23.80;99.10;;;;;;4404665;32;20061;-62
2021/06/04 11:57:57;;;;;;;0.90;0.60;;;23.90;98.90;;;;;;4420663;32;20104;-63
2021/06/04 12:00:46;;;;;;;1.35;0.95;;;24.00;99.30;;;;;;4400115;32;20081;-63
2021/06/04 12:03:17;;;;;;;0.65;0.65;;;24.00;98.40;;;;;;4404162;32;20578;-62
2021/06/04 12:05:46;;;;;;;2.37;0.70;;;23.80;98.60;;;;;;4415289;32;20102;-62
2021/06/04 12:08:34;;;;;;;0.40;0.40;;;23.60;99.20;;;;;;4420563;32;20089;-61
2021/06/04 12:11:05;;;;;;;0.70;0.57;;;23.50;99.50;;;;;;4418453;32;20089;-62
2021/06/04 12:13:52;;;;;;;0.43;0.43;;;23.80;99.90;;;;;;4402993;32;20081;-62
2021/06/04 12:16:25;;;;;;;2.03;0.88;;;23.90;99.30;;;;;;4412191;32;20105;-62
2021/06/04 12:19:22;;;;;;;0.50;0.40;;;24.30;99.20;;;;;;4415399;32;20065;-63
2021/06/04 12:21:51;;;;;;;3.85;1.33;;;24.80;97.40;;;;;;4426107;32;20166;-63
2021/06/04 12:24:19;;;;;;;0.70;0.70;;;25.10;96.30;;;;;;4418716;32;20112;-63
2021/06/04 12:26:48;;;;;;;0.43;0.43;;;25.10;96.80;;;;;;4414422;32;20069;-63
2021/06/04 12:29:24;;;;;;;0.50;0.50;;;25.30;95.40;;;;;;4401343;32;20045;-62
2021/06/04 12:31:53;;;;;;;0.30;0.30;;;25.50;96.00;;;;;;4418616;32;20358;-62
2021/06/04 12:34:41;;;;;;;0.20;0.20;;;25.50;95.00;;;;;;4393908;32;20065;-62
2021/06/04 12:37:09;;;;;;;0.65;0.52;;;25.70;95.00;;;;;;4403171;32;20102;-63
2021/06/04 12:39:44;;;;;;;2.20;0.80;;;26.40;95.20;;;;;;4421565;32;20531;-62
2021/06/04 12:42:34;;;;;;;1.45;0.90;;;26.70;92.90;;;;;;4412189;32;20382;-62
2021/06/04 12:45:06;;;;;;;1.65;0.68;;;27.20;93.60;;;;;;4422370;32;20534;-61
2021/06/04 12:47:44;;;;;;;1.10;0.40;;;27.90;91.80;;;;;;4402373;32;20081;-62
2021/06/04 12:50:18;;;;;;;0.20;0.20;;;28.50;90.40;;;;;;4400352;32;20061;-62
2021/06/04 12:52:45;;;;;;;0.88;0.37;;;28.70;89.80;;;;;;4405710;32;20062;-60
2021/06/04 12:55:32;;;;;;;0.20;0.20;;;28.90;85.60;;;;;;4407511;32;20077;-60
2021/06/04 12:58:19;;;;;;;6.12;1.48;;;28.20;87.20;;;;;;4405362;32;20073;-59
2021/06/04 13:00:45;;;;;;;1.40;0.50;;;28.10;86.80;;;;;;4399002;32;20082;-60
2021/06/04 13:03:27;;;;;;;0.85;0.47;;;27.50;87.00;;;;;;4420902;32;20086;-62
2021/06/04 13:05:56;;;;;;;0.25;0.20;;;27.20;86.20;;;;;;4404184;32;20065;-61
2021/06/04 13:08:32;;;;;;;0.40;0.40;;;27.10;88.90;;;;;;4429172;32;20069;-60
2021/06/04 13:10:59;;;;;;;1.05;0.80;;;26.90;87.60;;;;;;4427357;32;20126;-62
2021/06/04 13:13:35;;;;;;;2.40;1.12;;;26.50;89.20;;;;;;4401690;32;20062;-61